Time;durP1;ratioP1;P1;durP2;ratioP2;P2;SDS_P1;SDS_P2;PMS_P1;PMS_P2;Temp;Humidity;BMP_temperature;BMP_pressure;BME280_temperature;BME280_humidity;BME280_pressure;Samples;Min_cycle;Max_cycle;Signal;HPM_P1;HPM_P2
2022/03/02 00:02:23;;;;;;;22.37;13.33;;;;;;;;;;4945438;28;20926;-43
2022/03/02 00:04:49;;;;;;;22.33;13.80;;;;;;;;;;4942196;28;20421;-43
2022/03/02 00:07:15;;;;;;;24.03;13.43;;;;;;;;;;4945462;28;20652;-42
2022/03/02 00:09:41;;;;;;;18.97;12.33;;;;;;;;;;4946749;28;21467;-43
2022/03/02 00:12:08;;;;;;;18.87;12.37;;;;;;;;;;4948822;28;20437;-43
2022/03/02 00:14:34;;;;;;;21.13;11.97;;;;;;;;;;4948407;28;20946;-43
2022/03/02 00:17:00;;;;;;;20.63;12.77;;;;;;;;;;4945736;28;21410;-44
2022/03/02 00:19:26;;;;;;;19.10;11.40;;;;;;;;;;4943912;28;20445;-43
2022/03/02 00:21:52;;;;;;;20.00;12.00;;;;;;;;;;4942635;28;20460;-43
2022/03/02 00:24:20;;;;;;;18.50;11.30;;;;;;;;;;4950382;28;20544;-43
2022/03/02 00:26:46;;;;;;;21.20;11.80;;;;;;;;;;4946916;28;20429;-44
2022/03/02 00:29:12;;;;;;;20.53;11.97;;;;;;;;;;4947453;28;20507;-44
2022/03/02 00:31:38;;;;;;;17.83;11.93;;;;;;;;;;4943951;28;20430;-44
2022/03/02 00:34:04;;;;;;;18.83;11.77;;;;;;;;;;4944763;28;20985;-45
2022/03/02 00:36:30;;;;;;;22.23;11.43;;;;;;;;;;4948026;28;20425;-44
2022/03/02 00:38:56;;;;;;;21.83;11.37;;;;;;;;;;4949012;28;20461;-44
2022/03/02 00:41:22;;;;;;;20.70;11.27;;;;;;;;;;4944707;28;20931;-45
2022/03/02 00:43:49;;;;;;;20.33;11.30;;;;;;;;;;4941735;28;20633;-44
2022/03/02 00:46:15;;;;;;;18.87;11.40;;;;;;;;;;4947106;28;20429;-45
2022/03/02 00:48:41;;;;;;;21.57;11.57;;;;;;;;;;4946623;28;20440;-45
2022/03/02 00:51:08;;;;;;;17.93;10.97;;;;;;;;;;4948526;28;20790;-45
2022/03/02 00:53:34;;;;;;;18.80;10.80;;;;;;;;;;4944610;28;20472;-45
2022/03/02 00:56:00;;;;;;;19.83;11.93;;;;;;;;;;4943773;28;20428;-45
2022/03/02 00:58:26;;;;;;;19.00;10.37;;;;;;;;;;4943352;28;21258;-45
2022/03/02 01:00:52;;;;;;;20.17;10.57;;;;;;;;;;4940084;28;20941;-45
2022/03/02 01:03:18;;;;;;;20.70;11.90;;;;;;;;;;4947530;28;20458;-45
2022/03/02 01:05:44;;;;;;;19.23;11.50;;;;;;;;;;4949584;28;20659;-44
2022/03/02 01:08:10;;;;;;;18.90;10.63;;;;;;;;;;4944877;28;20425;-44
2022/03/02 01:10:37;;;;;;;19.67;11.30;;;;;;;;;;4944864;28;20432;-45
2022/03/02 01:13:03;;;;;;;19.10;10.73;;;;;;;;;;4946396;28;20719;-44
2022/03/02 01:15:29;;;;;;;16.23;10.70;;;;;;;;;;4946718;28;20429;-45
2022/03/02 01:17:55;;;;;;;15.47;10.13;;;;;;;;;;4944707;28;20436;-45
2022/03/02 01:20:21;;;;;;;18.47;10.30;;;;;;;;;;4942087;28;20928;-45
2022/03/02 01:22:47;;;;;;;18.93;10.10;;;;;;;;;;4946461;28;20464;-45
2022/03/02 01:25:14;;;;;;;18.20;10.63;;;;;;;;;;4948821;28;21176;-45
2022/03/02 01:27:40;;;;;;;16.77;10.73;;;;;;;;;;4944937;28;20508;-45
2022/03/02 01:30:07;;;;;;;17.93;10.30;;;;;;;;;;4945998;28;20429;-45
2022/03/02 01:32:33;;;;;;;17.40;9.67;;;;;;;;;;4939078;28;20433;-45
2022/03/02 01:34:59;;;;;;;14.07;9.73;;;;;;;;;;4943343;28;20429;-44
2022/03/02 01:37:25;;;;;;;17.07;10.23;;;;;;;;;;4947390;28;21356;-45
2022/03/02 01:39:52;;;;;;;17.00;9.63;;;;;;;;;;4946799;28;20758;-44
2022/03/02 01:42:18;;;;;;;17.90;10.13;;;;;;;;;;4946130;28;21130;-45
2022/03/02 01:44:44;;;;;;;16.60;9.43;;;;;;;;;;4945439;28;20464;-45
2022/03/02 01:47:10;;;;;;;15.93;10.07;;;;;;;;;;4946963;28;21286;-45
2022/03/02 01:49:36;;;;;;;15.50;9.67;;;;;;;;;;4944865;28;20898;-45
2022/03/02 01:52:02;;;;;;;15.77;9.67;;;;;;;;;;4942275;28;20509;-45
2022/03/02 01:54:28;;;;;;;14.43;9.07;;;;;;;;;;4944621;28;20436;-45
2022/03/02 01:56:54;;;;;;;16.10;10.50;;;;;;;;;;4945699;28;20600;-44
2022/03/02 01:59:21;;;;;;;15.33;9.60;;;;;;;;;;4943290;28;20692;-45
2022/03/02 02:01:48;;;;;;;14.83;9.63;;;;;;;;;;4946784;28;20430;-45
2022/03/02 02:04:14;;;;;;;14.97;9.50;;;;;;;;;;4949895;28;20589;-45
2022/03/02 02:06:40;;;;;;;13.83;9.27;;;;;;;;;;4948848;28;21132;-45
2022/03/02 02:09:07;;;;;;;16.73;9.27;;;;;;;;;;4950136;28;20421;-45
2022/03/02 02:11:33;;;;;;;13.00;8.70;;;;;;;;;;4948917;28;20991;-45
2022/03/02 02:14:00;;;;;;;14.37;8.97;;;;;;;;;;4947300;28;20533;-45
2022/03/02 02:16:26;;;;;;;16.00;9.60;;;;;;;;;;4947821;28;20499;-45
2022/03/02 02:18:55;;;;;;;15.37;9.10;;;;;;;;;;4950793;28;20941;-45
2022/03/02 02:21:21;;;;;;;13.60;9.00;;;;;;;;;;4950116;28;20425;-45
2022/03/02 02:23:48;;;;;;;14.80;9.57;;;;;;;;;;4945833;28;20453;-45
2022/03/02 02:26:14;;;;;;;17.13;9.53;;;;;;;;;;4948844;28;20417;-45
2022/03/02 02:28:41;;;;;;;15.30;10.00;;;;;;;;;;4953267;28;20425;-45
2022/03/02 02:31:07;;;;;;;17.87;9.40;;;;;;;;;;4948115;28;20968;-44
2022/03/02 02:33:33;;;;;;;15.93;10.07;;;;;;;;;;4943996;28;20765;-45
2022/03/02 02:35:59;;;;;;;19.27;10.77;;;;;;;;;;4942623;28;20835;-45
2022/03/02 02:38:26;;;;;;;20.57;11.50;;;;;;;;;;4943717;28;20437;-45
2022/03/02 02:40:52;;;;;;;19.40;11.33;;;;;;;;;;4947896;28;20460;-45
2022/03/02 02:43:20;;;;;;;20.40;11.57;;;;;;;;;;4951768;28;20978;-45
2022/03/02 02:45:46;;;;;;;20.17;11.80;;;;;;;;;;4951329;28;20930;-45
2022/03/02 02:48:12;;;;;;;19.97;11.97;;;;;;;;;;4948538;28;20560;-45
2022/03/02 02:50:38;;;;;;;21.70;11.87;;;;;;;;;;4945792;28;20570;-44
2022/03/02 02:53:06;;;;;;;21.37;11.93;;;;;;;;;;4944884;28;20473;-45
2022/03/02 02:55:33;;;;;;;19.40;11.37;;;;;;;;;;4947508;28;20472;-45
2022/03/02 02:58:00;;;;;;;19.73;11.73;;;;;;;;;;4948324;28;20437;-45
2022/03/02 03:00:30;;;;;;;22.70;11.67;;;;;;;;;;4947534;28;20902;-45
2022/03/02 03:02:57;;;;;;;20.53;11.60;;;;;;;;;;4945948;28;20839;-45
2022/03/02 03:05:25;;;;;;;19.97;11.43;;;;;;;;;;4945215;28;20487;-45
2022/03/02 03:07:51;;;;;;;17.73;11.83;;;;;;;;;;4946761;28;20421;-45
2022/03/02 03:10:18;;;;;;;18.73;11.83;;;;;;;;;;4942374;28;20527;-45
2022/03/02 03:12:44;;;;;;;17.20;11.50;;;;;;;;;;4946415;28;20993;-45
2022/03/02 03:15:12;;;;;;;19.27;11.10;;;;;;;;;;4946620;28;20426;-45
2022/03/02 03:17:38;;;;;;;16.60;10.90;;;;;;;;;;4941666;28;20755;-45
2022/03/02 03:20:07;;;;;;;17.70;11.43;;;;;;;;;;4948660;28;20438;-45
2022/03/02 03:22:33;;;;;;;19.43;11.70;;;;;;;;;;4948598;28;20535;-45
2022/03/02 03:24:59;;;;;;;17.23;11.10;;;;;;;;;;4943155;28;20840;-44
2022/03/02 03:27:25;;;;;;;17.73;11.57;;;;;;;;;;4941728;28;20516;-45
2022/03/02 03:29:51;;;;;;;18.60;11.80;;;;;;;;;;4946717;28;20429;-45
2022/03/02 03:32:18;;;;;;;19.07;10.73;;;;;;;;;;4950657;28;20438;-45
2022/03/02 03:34:44;;;;;;;19.00;11.13;;;;;;;;;;4937447;28;20508;-45
2022/03/02 03:37:10;;;;;;;23.03;11.90;;;;;;;;;;4943627;28;20440;-45
2022/03/02 03:39:36;;;;;;;16.37;10.27;;;;;;;;;;4946835;28;20441;-45
2022/03/02 03:42:02;;;;;;;17.30;9.87;;;;;;;;;;4949995;28;20489;-45
2022/03/02 03:44:28;;;;;;;15.60;10.00;;;;;;;;;;4946678;28;20477;-45
2022/03/02 03:46:54;;;;;;;16.37;9.57;;;;;;;;;;4944406;28;20437;-45
2022/03/02 03:49:21;;;;;;;19.83;9.93;;;;;;;;;;4945032;28;20430;-45
2022/03/02 03:51:47;;;;;;;16.20;10.10;;;;;;;;;;4946169;28;20838;-45
2022/03/02 03:54:13;;;;;;;16.87;9.27;;;;;;;;;;4949417;28;20434;-45
2022/03/02 03:56:39;;;;;;;14.67;8.73;;;;;;;;;;4943507;28;20982;-45
2022/03/02 03:59:07;;;;;;;15.83;9.30;;;;;;;;;;4945910;28;20883;-45
2022/03/02 04:01:34;;;;;;;16.30;9.57;;;;;;;;;;4944613;28;20425;-45
2022/03/02 04:04:01;;;;;;;16.33;9.30;;;;;;;;;;4946109;28;20676;-45
2022/03/02 04:06:27;;;;;;;15.93;9.53;;;;;;;;;;4945851;28;20520;-45
2022/03/02 04:08:53;;;;;;;17.23;8.97;;;;;;;;;;4944105;28;20492;-45
2022/03/02 04:11:19;;;;;;;13.00;8.30;;;;;;;;;;4943661;28;20451;-44
2022/03/02 04:13:45;;;;;;;12.47;8.77;;;;;;;;;;4944382;28;20996;-44
2022/03/02 04:16:12;;;;;;;11.07;8.00;;;;;;;;;;4944211;28;21169;-44
2022/03/02 04:18:38;;;;;;;17.47;8.50;;;;;;;;;;4948087;28;21085;-44
2022/03/02 04:21:05;;;;;;;15.30;8.10;;;;;;;;;;4947251;28;20429;-44
2022/03/02 04:23:31;;;;;;;14.80;8.10;;;;;;;;;;4947375;28;20532;-44
2022/03/02 04:25:57;;;;;;;13.47;8.30;;;;;;;;;;4943642;28;21048;-44
2022/03/02 04:28:23;;;;;;;16.47;8.87;;;;;;;;;;4948048;28;21180;-44
2022/03/02 04:30:49;;;;;;;15.13;8.67;;;;;;;;;;4948775;28;20783;-44
2022/03/02 04:33:16;;;;;;;13.37;8.03;;;;;;;;;;4943966;28;21021;-44
2022/03/02 04:35:42;;;;;;;16.43;8.87;;;;;;;;;;4941927;28;20445;-44
2022/03/02 04:38:10;;;;;;;13.50;8.27;;;;;;;;;;4944963;28;20433;-44
2022/03/02 04:40:36;;;;;;;14.83;8.27;;;;;;;;;;4947611;28;20434;-44
2022/03/02 04:43:02;;;;;;;15.03;8.47;;;;;;;;;;4944091;28;20492;-44
2022/03/02 04:45:28;;;;;;;13.77;7.90;;;;;;;;;;4943595;28;20786;-44
2022/03/02 04:47:55;;;;;;;16.63;8.20;;;;;;;;;;4947806;28;21075;-44
2022/03/02 04:50:22;;;;;;;13.77;7.97;;;;;;;;;;4948673;28;20471;-44
2022/03/02 04:52:49;;;;;;;14.20;8.13;;;;;;;;;;4943043;28;20775;-44
2022/03/02 04:55:16;;;;;;;14.67;7.53;;;;;;;;;;4943972;28;20949;-44
2022/03/02 04:57:46;;;;;;;10.47;6.83;;;;;;;;;;4943634;28;21210;-44
2022/03/02 05:00:15;;;;;;;16.33;7.30;;;;;;;;;;4947137;28;21079;-44
2022/03/02 05:02:41;;;;;;;13.33;7.53;;;;;;;;;;4947447;28;21284;-44
2022/03/02 05:05:08;;;;;;;9.10;6.50;;;;;;;;;;4944206;28;20433;-44
2022/03/02 05:07:35;;;;;;;11.93;6.07;;;;;;;;;;4945032;28;20925;-44
2022/03/02 05:10:01;;;;;;;12.03;6.63;;;;;;;;;;4942759;28;20421;-44
2022/03/02 05:12:28;;;;;;;15.00;6.60;;;;;;;;;;4945026;28;20440;-44
2022/03/02 05:14:54;;;;;;;9.47;5.90;;;;;;;;;;4949120;28;21075;-44
2022/03/02 05:17:20;;;;;;;15.10;6.80;;;;;;;;;;4946375;28;21181;-44
2022/03/02 05:19:46;;;;;;;11.37;6.17;;;;;;;;;;4946793;28;20771;-45
2022/03/02 05:22:12;;;;;;;8.97;6.17;;;;;;;;;;4943570;28;20816;-44
2022/03/02 05:24:38;;;;;;;8.63;5.70;;;;;;;;;;4944415;28;20413;-44
2022/03/02 05:27:06;;;;;;;11.10;5.87;;;;;;;;;;4947643;28;20999;-44
2022/03/02 05:29:32;;;;;;;8.97;5.83;;;;;;;;;;4943609;28;20707;-45
2022/03/02 05:31:58;;;;;;;10.47;6.37;;;;;;;;;;4941606;28;20451;-44
2022/03/02 05:34:24;;;;;;;12.90;6.67;;;;;;;;;;4943619;28;20960;-44
2022/03/02 05:36:50;;;;;;;11.83;7.20;;;;;;;;;;4943052;28;20422;-44
2022/03/02 05:39:16;;;;;;;16.13;8.37;;;;;;;;;;4946708;28;20429;-44
2022/03/02 05:41:42;;;;;;;15.50;8.00;;;;;;;;;;4944374;28;21254;-44
2022/03/02 05:44:08;;;;;;;16.37;9.07;;;;;;;;;;4948612;28;20966;-46
2022/03/02 05:46:35;;;;;;;16.70;8.50;;;;;;;;;;4945032;28;20763;-45
2022/03/02 05:49:02;;;;;;;16.50;8.63;;;;;;;;;;4946259;28;21064;-45
2022/03/02 05:51:30;;;;;;;15.37;8.00;;;;;;;;;;4948840;28;20574;-45
2022/03/02 05:53:57;;;;;;;15.50;7.50;;;;;;;;;;4946042;28;20906;-44
2022/03/02 05:56:24;;;;;;;13.87;7.50;;;;;;;;;;4948068;28;20747;-45
2022/03/02 05:58:50;;;;;;;13.07;7.63;;;;;;;;;;4947693;28;21798;-44
2022/03/02 06:01:17;;;;;;;13.83;7.70;;;;;;;;;;4952077;28;20912;-44
2022/03/02 06:03:44;;;;;;;11.77;6.67;;;;;;;;;;4951378;28;20472;-43
2022/03/02 06:06:10;;;;;;;13.23;7.60;;;;;;;;;;4948404;28;20472;-44
2022/03/02 06:08:36;;;;;;;17.33;7.97;;;;;;;;;;4946656;28;20440;-45
2022/03/02 06:11:02;;;;;;;16.40;7.87;;;;;;;;;;4945354;28;20512;-44
2022/03/02 06:13:28;;;;;;;18.00;8.17;;;;;;;;;;4950010;28;20892;-44
2022/03/02 06:15:54;;;;;;;16.57;8.80;;;;;;;;;;4950818;28;20446;-45
2022/03/02 06:18:20;;;;;;;19.83;11.07;;;;;;;;;;4946888;28;20568;-44
2022/03/02 06:20:48;;;;;;;20.47;11.80;;;;;;;;;;4944533;28;20541;-44
2022/03/02 06:23:14;;;;;;;24.53;11.30;;;;;;;;;;4943028;28;20582;-44
2022/03/02 06:25:41;;;;;;;18.17;11.03;;;;;;;;;;4946823;28;20653;-45
2022/03/02 06:28:07;;;;;;;18.40;10.90;;;;;;;;;;4946599;28;20432;-45
2022/03/02 06:30:33;;;;;;;18.93;10.77;;;;;;;;;;4944127;28;21010;-44
2022/03/02 06:32:59;;;;;;;16.17;9.77;;;;;;;;;;4949617;28;20929;-44
2022/03/02 06:35:26;;;;;;;14.53;9.17;;;;;;;;;;4949241;28;20441;-44
2022/03/02 06:37:52;;;;;;;23.13;9.57;;;;;;;;;;4943451;28;20892;-45
2022/03/02 06:40:18;;;;;;;19.00;9.10;;;;;;;;;;4945726;28;22765;-44
2022/03/02 06:43:02;;;;;;;13.13;8.70;;;;;;;;;;4950322;28;20844;-44
2022/03/02 06:45:45;;;;;;;13.07;7.90;;;;;;;;;;4951183;28;20516;-44
2022/03/02 06:48:12;;;;;;;16.03;7.63;;;;;;;;;;4948429;28;20426;-44
2022/03/02 06:50:39;;;;;;;13.77;7.00;;;;;;;;;;4944861;28;20430;-44
2022/03/02 06:53:05;;;;;;;10.60;6.77;;;;;;;;;;4944805;28;21042;-44
2022/03/02 06:55:32;;;;;;;13.10;6.23;;;;;;;;;;4948284;28;20527;-44
2022/03/02 06:58:00;;;;;;;16.33;6.50;;;;;;;;;;4949562;28;20437;-44
2022/03/02 07:00:27;;;;;;;16.13;6.77;;;;;;;;;;4947941;28;20935;-45
2022/03/02 07:03:01;;;;;;;12.97;6.67;;;;;;;;;;4945581;28;20457;-44
2022/03/02 07:05:27;;;;;;;15.80;7.17;;;;;;;;;;4950115;28;20429;-44
2022/03/02 07:07:53;;;;;;;11.87;6.80;;;;;;;;;;4947998;28;20430;-45
2022/03/02 07:10:20;;;;;;;16.07;7.17;;;;;;;;;;4946256;28;21159;-45
2022/03/02 07:12:46;;;;;;;14.87;6.97;;;;;;;;;;4946088;28;20417;-45
2022/03/02 07:15:12;;;;;;;14.87;6.73;;;;;;;;;;4950842;28;20434;-45
2022/03/02 07:17:39;;;;;;;13.40;7.23;;;;;;;;;;4951512;28;20946;-45
2022/03/02 07:20:07;;;;;;;14.73;7.13;;;;;;;;;;4952139;28;20433;-45
2022/03/02 07:22:35;;;;;;;14.67;7.00;;;;;;;;;;4947073;28;20449;-45
2022/03/02 07:25:24;;;;;;;12.27;6.97;;;;;;;;;;4946592;28;20418;-45
2022/03/02 07:27:50;;;;;;;10.37;6.70;;;;;;;;;;4933673;28;20802;-45
2022/03/02 07:30:16;;;;;;;12.73;6.87;;;;;;;;;;4949360;28;20432;-45
2022/03/02 07:32:45;;;;;;;13.93;7.37;;;;;;;;;;4951463;28;20562;-44
2022/03/02 07:35:12;;;;;;;13.27;6.90;;;;;;;;;;4946539;28;21275;-45
2022/03/02 07:37:38;;;;;;;14.70;7.30;;;;;;;;;;4942799;28;20421;-45
2022/03/02 07:40:05;;;;;;;13.47;7.03;;;;;;;;;;4945441;28;20422;-45
2022/03/02 07:42:34;;;;;;;12.30;7.53;;;;;;;;;;4949385;28;20459;-45
2022/03/02 07:45:01;;;;;;;10.87;7.17;;;;;;;;;;4944559;28;20413;-45
2022/03/02 07:47:27;;;;;;;13.23;7.30;;;;;;;;;;4942235;28;21047;-45
2022/03/02 07:49:53;;;;;;;17.03;7.53;;;;;;;;;;4947797;28;20667;-45
2022/03/02 07:52:22;;;;;;;14.67;7.60;;;;;;;;;;4950157;28;20854;-45
2022/03/02 07:54:51;;;;;;;13.77;8.00;;;;;;;;;;4947561;28;20988;-45
2022/03/02 07:57:17;;;;;;;12.30;7.00;;;;;;;;;;4945989;28;20922;-45
2022/03/02 07:59:45;;;;;;;12.97;6.77;;;;;;;;;;4946347;28;20830;-45
2022/03/02 08:02:12;;;;;;;15.53;7.23;;;;;;;;;;4948902;28;20850;-45
2022/03/02 08:04:39;;;;;;;14.23;8.17;;;;;;;;;;4944343;28;20437;-45
2022/03/02 08:07:06;;;;;;;15.10;7.20;;;;;;;;;;4945663;28;20512;-45
2022/03/02 08:09:32;;;;;;;13.67;7.50;;;;;;;;;;4947660;28;20422;-45
2022/03/02 08:12:00;;;;;;;12.37;7.43;;;;;;;;;;4944897;28;20428;-45
2022/03/02 08:14:27;;;;;;;18.43;8.30;;;;;;;;;;4975755;28;21001;-45
2022/03/02 08:16:53;;;;;;;17.43;7.40;;;;;;;;;;4950743;28;20417;-46
2022/03/02 08:19:19;;;;;;;13.33;7.37;;;;;;;;;;4950730;28;21113;-45
2022/03/02 08:21:47;;;;;;;16.73;8.07;;;;;;;;;;4948134;28;20432;-46
2022/03/02 08:24:16;;;;;;;16.83;8.30;;;;;;;;;;4945535;28;21041;-45
2022/03/02 08:26:42;;;;;;;11.67;7.23;;;;;;;;;;4941515;28;20525;-45
2022/03/02 08:29:10;;;;;;;14.67;8.40;;;;;;;;;;4946361;28;20507;-45
2022/03/02 08:31:37;;;;;;;16.10;8.00;;;;;;;;;;4947793;28;20463;-45
2022/03/02 08:34:04;;;;;;;15.57;8.43;;;;;;;;;;4947705;28;20425;-45
2022/03/02 08:36:34;;;;;;;15.63;8.63;;;;;;;;;;4942596;28;20847;-45
2022/03/02 08:39:26;;;;;;;16.53;8.17;;;;;;;;;;4947253;28;20804;-45
2022/03/02 08:41:53;;;;;;;13.07;8.50;;;;;;;;;;4947247;28;21228;-45
2022/03/02 08:44:20;;;;;;;16.03;8.23;;;;;;;;;;4945462;28;20949;-45
2022/03/02 08:46:46;;;;;;;16.77;8.47;;;;;;;;;;4943325;28;20835;-46
2022/03/02 08:49:15;;;;;;;17.67;8.83;;;;;;;;;;4946382;28;20548;-46
2022/03/02 08:51:42;;;;;;;15.17;9.50;;;;;;;;;;4949490;28;20570;-46
2022/03/02 08:54:11;;;;;;;17.23;9.03;;;;;;;;;;4945918;28;20449;-46
2022/03/02 08:56:39;;;;;;;18.23;10.00;;;;;;;;;;4945217;28;20896;-46
2022/03/02 08:59:06;;;;;;;16.30;9.77;;;;;;;;;;4946410;28;20519;-46
2022/03/02 09:01:32;;;;;;;16.70;9.23;;;;;;;;;;4952502;28;21043;-46
2022/03/02 09:03:59;;;;;;;18.30;9.90;;;;;;;;;;4945312;28;20198;-46
2022/03/02 09:06:26;;;;;;;14.30;9.40;;;;;;;;;;4942740;28;20489;-46
2022/03/02 09:08:52;;;;;;;16.90;9.93;;;;;;;;;;4944627;28;20183;-46
2022/03/02 09:11:18;;;;;;;16.77;9.50;;;;;;;;;;4947371;28;20271;-46
2022/03/02 09:13:44;;;;;;;18.83;10.70;;;;;;;;;;4945713;28;21071;-46
2022/03/02 09:16:10;;;;;;;16.17;10.67;;;;;;;;;;4953678;28;20288;-46
2022/03/02 09:18:36;;;;;;;18.20;10.37;;;;;;;;;;4952862;28;20206;-46
2022/03/02 09:21:04;;;;;;;15.53;10.17;;;;;;;;;;4947935;28;20452;-46
2022/03/02 09:23:31;;;;;;;16.13;10.50;;;;;;;;;;4947436;28;20212;-46
2022/03/02 09:25:59;;;;;;;16.97;10.83;;;;;;;;;;4948928;28;20303;-46
2022/03/02 09:28:28;;;;;;;17.97;10.77;;;;;;;;;;4947973;28;20178;-46
2022/03/02 09:30:54;;;;;;;17.37;10.90;;;;;;;;;;4949990;28;21016;-46
2022/03/02 09:33:22;;;;;;;17.57;10.07;;;;;;;;;;4953729;28;20320;-46
2022/03/02 09:35:48;;;;;;;25.50;10.97;;;;;;;;;;4952785;28;21076;-46
2022/03/02 09:38:14;;;;;;;19.67;11.93;;;;;;;;;;4948987;28;20468;-46
2022/03/02 09:40:44;;;;;;;19.83;11.23;;;;;;;;;;4946384;28;20183;-46
2022/03/02 09:43:16;;;;;;;20.20;11.40;;;;;;;;;;4947543;28;20213;-46
2022/03/02 09:45:43;;;;;;;18.77;11.60;;;;;;;;;;4950883;28;20170;-46
2022/03/02 09:48:12;;;;;;;16.23;11.53;;;;;;;;;;4949585;28;20683;-45
2022/03/02 09:50:39;;;;;;;15.87;11.40;;;;;;;;;;4948597;28;20774;-46
2022/03/02 09:53:08;;;;;;;14.87;11.20;;;;;;;;;;4949388;28;20781;-45
2022/03/02 09:55:35;;;;;;;17.87;11.03;;;;;;;;;;4950736;28;20874;-45
2022/03/02 09:58:01;;;;;;;16.70;12.60;;;;;;;;;;4950278;28;20187;-46
2022/03/02 10:00:28;;;;;;;20.33;13.03;;;;;;;;;;4950758;28;20543;-46
2022/03/02 10:02:56;;;;;;;19.00;12.43;;;;;;;;;;4945877;28;20841;-46
2022/03/02 10:05:33;;;;;;;17.60;11.57;;;;;;;;;;4948714;28;20170;-45
2022/03/02 10:08:07;;;;;;;17.23;12.43;;;;;;;;;;4954126;28;20849;-45
2022/03/02 10:10:36;;;;;;;21.53;12.57;;;;;;;;;;4950480;28;20607;-45
2022/03/02 10:13:05;;;;;;;17.77;12.90;;;;;;;;;;4947339;28;20484;-45
2022/03/02 10:15:31;;;;;;;18.63;12.50;;;;;;;;;;4944867;28;20183;-46
2022/03/02 10:17:58;;;;;;;18.07;12.37;;;;;;;;;;4945276;28;20609;-45
2022/03/02 10:20:26;;;;;;;18.63;12.40;;;;;;;;;;4954960;28;20662;-46
2022/03/02 10:22:52;;;;;;;21.60;13.00;;;;;;;;;;4954010;28;20203;-46
2022/03/02 10:25:18;;;;;;;20.43;13.57;;;;;;;;;;4947665;28;20577;-45
2022/03/02 10:28:02;;;;;;;20.30;13.27;;;;;;;;;;4976206;28;20744;-46
2022/03/02 10:30:37;;;;;;;21.23;13.03;;;;;;;;;;4948809;28;20785;-45
2022/03/02 10:33:23;;;;;;;19.33;13.47;;;;;;;;;;4952047;28;20189;-45
2022/03/02 10:36:03;;;;;;;19.13;13.23;;;;;;;;;;4947120;28;20186;-45
2022/03/02 10:38:39;;;;;;;18.17;12.73;;;;;;;;;;4943307;28;20186;-46
2022/03/02 10:41:07;;;;;;;21.83;13.80;;;;;;;;;;4946617;28;20193;-45
2022/03/02 10:43:48;;;;;;;19.23;13.30;;;;;;;;;;4948431;28;20706;-45
2022/03/02 10:46:19;;;;;;;19.10;13.33;;;;;;;;;;4948820;28;20255;-45
2022/03/02 10:48:47;;;;;;;22.67;13.70;;;;;;;;;;4952050;28;20163;-45
2022/03/02 10:51:14;;;;;;;20.53;13.20;;;;;;;;;;4952309;28;20654;-45
2022/03/02 10:53:41;;;;;;;19.50;12.77;;;;;;;;;;4946315;28;20258;-45
2022/03/02 10:56:13;;;;;;;18.30;13.37;;;;;;;;;;4945217;28;21046;-46
2022/03/02 10:58:40;;;;;;;19.27;13.40;;;;;;;;;;4946447;28;20182;-45
2022/03/02 11:01:06;;;;;;;19.40;12.73;;;;;;;;;;4949988;28;20492;-45
2022/03/02 11:03:36;;;;;;;18.67;13.20;;;;;;;;;;4946654;28;20844;-46
2022/03/02 11:06:03;;;;;;;19.70;13.63;;;;;;;;;;4944854;28;20179;-46
2022/03/02 11:08:30;;;;;;;19.67;14.13;;;;;;;;;;4951590;28;20194;-45
2022/03/02 11:10:57;;;;;;;19.63;13.43;;;;;;;;;;4947073;28;20178;-45
2022/03/02 11:13:23;;;;;;;20.70;13.93;;;;;;;;;;4946070;28;20390;-45
2022/03/02 11:15:58;;;;;;;20.10;13.87;;;;;;;;;;4945572;28;20820;-45
2022/03/02 11:18:33;;;;;;;21.23;14.03;;;;;;;;;;4945867;28;20400;-45
2022/03/02 11:21:00;;;;;;;21.13;14.27;;;;;;;;;;4946146;28;20192;-45
2022/03/02 11:23:27;;;;;;;20.23;14.67;;;;;;;;;;4947913;28;20206;-45
2022/03/02 11:25:55;;;;;;;24.77;14.20;;;;;;;;;;4947066;28;20742;-44
2022/03/02 11:28:22;;;;;;;20.93;13.63;;;;;;;;;;4944469;28;20174;-45
2022/03/02 11:30:48;;;;;;;20.37;13.53;;;;;;;;;;4947365;28;20192;-45
2022/03/02 11:33:15;;;;;;;24.80;14.17;;;;;;;;;;4949780;28;20229;-45
2022/03/02 11:35:43;;;;;;;20.10;13.50;;;;;;;;;;4946636;28;20907;-45
2022/03/02 11:38:10;;;;;;;22.13;13.97;;;;;;;;;;4943164;28;20178;-45
2022/03/02 11:40:44;;;;;;;20.93;13.67;;;;;;;;;;4946085;28;20216;-45
2022/03/02 11:43:18;;;;;;;19.63;14.30;;;;;;;;;;4949685;28;20220;-44
2022/03/02 11:45:44;;;;;;;18.17;13.37;;;;;;;;;;4948283;28;20488;-45
2022/03/02 11:48:15;;;;;;;17.80;13.17;;;;;;;;;;4942315;28;20217;-45
2022/03/02 11:51:00;;;;;;;19.13;13.17;;;;;;;;;;4945028;28;20189;-45
2022/03/02 11:53:33;;;;;;;20.80;13.90;;;;;;;;;;4948533;28;20185;-44
2022/03/02 11:56:01;;;;;;;18.30;13.17;;;;;;;;;;4949914;28;21155;-44
2022/03/02 11:58:27;;;;;;;17.47;13.23;;;;;;;;;;4947587;28;20187;-44
2022/03/02 12:00:58;;;;;;;23.30;14.30;;;;;;;;;;4943907;28;20222;-45
2022/03/02 12:03:24;;;;;;;18.50;13.47;;;;;;;;;;4946074;28;20225;-45
2022/03/02 12:06:04;;;;;;;21.27;13.80;;;;;;;;;;4949057;28;20178;-45
2022/03/02 12:08:32;;;;;;;18.30;13.30;;;;;;;;;;4945757;28;20189;-44
2022/03/02 12:11:02;;;;;;;17.53;12.77;;;;;;;;;;4946605;28;20178;-45
2022/03/02 12:13:29;;;;;;;19.10;12.80;;;;;;;;;;4948797;28;20193;-45
2022/03/02 12:15:55;;;;;;;18.33;12.93;;;;;;;;;;4948563;28;20182;-45
2022/03/02 12:18:22;;;;;;;18.27;12.60;;;;;;;;;;4942445;28;20182;-45
2022/03/02 12:20:48;;;;;;;18.37;12.23;;;;;;;;;;4943681;28;20730;-45
2022/03/02 12:23:35;;;;;;;17.17;12.13;;;;;;;;;;4949150;28;20206;-46
2022/03/02 12:26:02;;;;;;;17.77;13.07;;;;;;;;;;4951227;28;20257;-45
2022/03/02 12:28:29;;;;;;;14.23;11.40;;;;;;;;;;4950278;28;20371;-44
2022/03/02 12:30:55;;;;;;;19.27;12.37;;;;;;;;;;4944454;28;20182;-46
2022/03/02 12:33:22;;;;;;;19.30;12.63;;;;;;;;;;4945464;28;20505;-46
2022/03/02 12:35:48;;;;;;;20.60;12.90;;;;;;;;;;4942195;28;20177;-45
2022/03/02 12:38:14;;;;;;;18.27;12.60;;;;;;;;;;4947867;28;20183;-45
2022/03/02 12:40:42;;;;;;;18.13;13.30;;;;;;;;;;4948736;28;20611;-45
2022/03/02 12:43:16;;;;;;;17.50;12.13;;;;;;;;;;4943448;28;20217;-45
2022/03/02 12:45:44;;;;;;;16.93;11.80;;;;;;;;;;4942258;28;20252;-45
2022/03/02 12:48:11;;;;;;;17.93;11.70;;;;;;;;;;4945499;28;20182;-45
2022/03/02 12:50:37;;;;;;;17.70;12.03;;;;;;;;;;4947886;28;20326;-46
2022/03/02 12:53:04;;;;;;;17.00;11.90;;;;;;;;;;4949758;28;20307;-45
2022/03/02 12:55:30;;;;;;;17.33;11.63;;;;;;;;;;4945346;28;20210;-46
2022/03/02 12:57:57;;;;;;;16.17;12.13;;;;;;;;;;4944398;28;20636;-46
2022/03/02 13:00:24;;;;;;;17.70;11.73;;;;;;;;;;4947512;28;20281;-46
2022/03/02 13:02:57;;;;;;;14.73;10.70;;;;;;;;;;4950999;28;20614;-46
2022/03/02 13:05:26;;;;;;;17.83;11.70;;;;;;;;;;4946434;28;21182;-45
2022/03/02 13:08:10;;;;;;;13.50;10.60;;;;;;;;;;4943494;28;20186;-46
2022/03/02 13:10:42;;;;;;;14.37;10.60;;;;;;;;;;4943828;28;20482;-46
2022/03/02 13:13:09;;;;;;;13.17;10.40;;;;;;;;;;4946443;28;20204;-46
2022/03/02 13:15:35;;;;;;;17.13;11.40;;;;;;;;;;4947542;28;20253;-46
2022/03/02 13:18:20;;;;;;;15.17;11.30;;;;;;;;;;4943851;28;20186;-46
2022/03/02 13:20:48;;;;;;;17.07;11.67;;;;;;;;;;4943289;28;20424;-46
2022/03/02 13:23:14;;;;;;;18.30;12.10;;;;;;;;;;4947385;28;20199;-46
2022/03/02 13:25:41;;;;;;;14.73;11.47;;;;;;;;;;4942699;28;20248;-46
2022/03/02 13:28:09;;;;;;;15.63;11.23;;;;;;;;;;4941500;28;20260;-46
2022/03/02 13:30:36;;;;;;;16.17;11.73;;;;;;;;;;4945578;28;21037;-46
2022/03/02 13:33:05;;;;;;;16.87;11.90;;;;;;;;;;4948420;28;20217;-45
2022/03/02 13:35:33;;;;;;;19.23;12.27;;;;;;;;;;4943985;28;20186;-45
2022/03/02 13:38:06;;;;;;;16.20;11.87;;;;;;;;;;4939495;28;20186;-45
2022/03/02 13:40:35;;;;;;;15.50;12.20;;;;;;;;;;4943670;28;20190;-45
2022/03/02 13:43:22;;;;;;;16.63;12.23;;;;;;;;;;4947427;28;20369;-45
2022/03/02 13:46:00;;;;;;;17.50;12.73;;;;;;;;;;4947373;28;20182;-45
2022/03/02 13:48:27;;;;;;;20.33;13.37;;;;;;;;;;4942269;28;20194;-45
2022/03/02 13:51:00;;;;;;;18.43;12.37;;;;;;;;;;4942610;28;20583;-45
2022/03/02 13:53:33;;;;;;;21.50;13.47;;;;;;;;;;4946476;28;20297;-45
2022/03/02 13:56:10;;;;;;;17.23;13.07;;;;;;;;;;4948474;28;20611;-45
2022/03/02 13:58:37;;;;;;;17.73;12.73;;;;;;;;;;4942423;28;20186;-45
2022/03/02 14:01:14;;;;;;;18.77;12.87;;;;;;;;;;4942982;28;20186;-45
2022/03/02 14:03:44;;;;;;;16.17;13.10;;;;;;;;;;4946301;28;20249;-45
2022/03/02 14:06:11;;;;;;;19.93;13.07;;;;;;;;;;4950809;28;20163;-45
2022/03/02 14:08:57;;;;;;;16.37;13.00;;;;;;;;;;4950481;28;20503;-45
2022/03/02 14:11:42;;;;;;;20.10;14.03;;;;;;;;;;4947950;28;20719;-45
2022/03/02 14:14:16;;;;;;;20.03;13.40;;;;;;;;;;4945925;28;20293;-45
2022/03/02 14:17:01;;;;;;;20.80;13.90;;;;;;;;;;4943769;28;20191;-44
2022/03/02 14:19:28;;;;;;;19.10;13.77;;;;;;;;;;4946426;28;20198;-45
2022/03/02 14:21:56;;;;;;;19.53;13.40;;;;;;;;;;4948901;28;20805;-45
2022/03/02 14:24:23;;;;;;;21.70;13.67;;;;;;;;;;4949986;28;20788;-44
2022/03/02 14:26:53;;;;;;;19.03;13.60;;;;;;;;;;4949314;28;20225;-44
2022/03/02 14:29:22;;;;;;;19.63;13.20;;;;;;;;;;4948659;28;21764;-45